createdAt,value
2022-12-09T00:00:39.622Z,44.10
2022-12-09T00:01:39.618Z,46.10
2022-12-09T00:02:39.716Z,48.00
2022-12-09T00:03:39.712Z,47.10
2022-12-09T00:04:39.720Z,47.30
2022-12-09T00:05:39.564Z,51.70
2022-12-09T00:06:39.722Z,48.70
2022-12-09T00:07:39.637Z,49.90
2022-12-09T00:08:39.553Z,46.80
2022-12-09T00:09:39.520Z,47.60
2022-12-09T00:10:39.649Z,46.70
2022-12-09T00:11:39.725Z,50.30
2022-12-09T00:12:39.710Z,47.40
2022-12-09T00:13:39.470Z,43.50
2022-12-09T00:14:39.443Z,40.10
2022-12-09T00:15:39.474Z,42.00
2022-12-09T00:16:39.474Z,39.40
2022-12-09T00:17:39.493Z,39.00
2022-12-09T00:18:39.625Z,41.40
2022-12-09T00:19:39.640Z,40.50
2022-12-09T00:20:39.568Z,42.20
2022-12-09T00:21:39.460Z,44.50
2022-12-09T00:22:39.377Z,55.80
2022-12-09T00:23:39.353Z,47.60
2022-12-09T00:24:39.544Z,51.00
2022-12-09T00:25:39.327Z,46.80
2022-12-09T00:26:39.432Z,46.00
2022-12-09T00:27:39.561Z,49.60
2022-12-09T00:28:39.510Z,45.00
2022-12-09T00:29:39.295Z,42.80
2022-12-09T00:30:39.292Z,48.60
2022-12-09T00:31:39.434Z,41.90
2022-12-09T00:32:39.327Z,46.00
2022-12-09T00:33:39.234Z,43.50
2022-12-09T00:34:39.247Z,45.90
2022-12-09T00:35:39.223Z,56.40
2022-12-09T00:36:39.448Z,63.90
2022-12-09T00:37:39.208Z,66.10
2022-12-09T00:38:39.264Z,62.30
2022-12-09T00:39:39.206Z,55.90
2022-12-09T00:40:39.462Z,52.70
2022-12-09T00:41:39.422Z,51.90
2022-12-09T00:42:39.238Z,48.30
2022-12-09T00:43:39.139Z,43.50
2022-12-09T00:44:39.411Z,44.50
2022-12-09T00:45:39.142Z,48.40
2022-12-09T00:46:39.290Z,51.30
2022-12-09T00:47:39.398Z,51.00
2022-12-09T00:48:39.156Z,52.30
2022-12-09T00:49:39.096Z,52.80
2022-12-09T00:50:39.300Z,53.10
2022-12-09T00:51:39.172Z,55.50
2022-12-09T00:52:39.324Z,53.70
2022-12-09T00:53:39.137Z,56.90
2022-12-09T00:54:39.144Z,54.50
2022-12-09T00:55:39.164Z,54.50
2022-12-09T00:56:39.184Z,52.60
2022-12-09T00:57:39.064Z,47.20
2022-12-09T00:58:39.068Z,50.60
2022-12-09T00:59:39.038Z,55.10
2022-12-09T01:00:39.163Z,49.30
2022-12-09T01:01:39.267Z,44.60
2022-12-09T01:02:39.332Z,41.10
2022-12-09T01:03:39.362Z,42.50
2022-12-09T01:04:39.245Z,42.60
2022-12-09T01:05:39.001Z,45.60
2022-12-09T01:06:39.037Z,42.50
2022-12-09T01:07:39.058Z,43.20
2022-12-09T01:08:39.517Z,45.90
2022-12-09T01:09:39.188Z,41.70
2022-12-09T01:10:39.264Z,41.10
2022-12-09T01:11:39.029Z,38.10
2022-12-09T01:12:39.094Z,39.30
2022-12-09T01:13:38.968Z,39.00
2022-12-09T01:14:39.017Z,39.80
2022-12-09T01:15:39.073Z,37.80
2022-12-09T01:16:39.067Z,43.60
2022-12-09T01:17:39.136Z,39.80
2022-12-09T01:18:38.974Z,42.00
2022-12-09T01:19:38.979Z,41.20
2022-12-09T01:20:38.984Z,33.70
2022-12-09T01:21:38.988Z,37.10
2022-12-09T01:22:39.071Z,41.00
2022-12-09T01:23:38.929Z,39.00
2022-12-09T01:24:38.942Z,40.40
2022-12-09T01:25:38.940Z,41.30
2022-12-09T01:26:39.250Z,41.50
2022-12-09T01:27:39.194Z,45.60
2022-12-09T01:28:38.938Z,46.10
2022-12-09T01:29:38.922Z,46.10
2022-12-09T01:30:38.938Z,40.50
2022-12-09T01:31:39.101Z,39.20
2022-12-09T01:32:39.236Z,41.20
2022-12-09T01:33:39.227Z,41.40
2022-12-09T01:34:39.090Z,40.60
2022-12-09T01:35:38.933Z,41.00
2022-12-09T01:36:39.035Z,41.30
2022-12-09T01:37:38.995Z,43.50
2022-12-09T01:38:39.012Z,34.10
2022-12-09T01:39:38.952Z,37.80
2022-12-09T01:40:39.154Z,40.60
2022-12-09T01:41:39.331Z,40.80
2022-12-09T01:42:39.250Z,43.50
2022-12-09T01:43:38.984Z,43.70
2022-12-09T01:44:39.296Z,38.70
2022-12-09T01:45:38.992Z,38.60
2022-12-09T01:46:39.106Z,39.70
2022-12-09T01:47:39.161Z,45.40
2022-12-09T01:48:39.018Z,44.80
2022-12-09T01:49:39.166Z,50.10
2022-12-09T01:50:39.003Z,41.50
2022-12-09T01:51:39.024Z,44.20
2022-12-09T01:52:39.004Z,42.20
2022-12-09T01:53:39.020Z,43.70
2022-12-09T01:54:39.015Z,43.20
2022-12-09T01:55:39.260Z,48.70
2022-12-09T01:56:39.143Z,41.70
2022-12-09T01:57:39.135Z,36.60
2022-12-09T01:58:39.018Z,37.40
2022-12-09T01:59:39.053Z,37.90
2022-12-09T02:00:39.353Z,37.40
2022-12-09T02:01:39.089Z,36.90
2022-12-09T02:02:39.312Z,38.30
2022-12-09T02:03:39.219Z,40.10
2022-12-09T02:04:39.114Z,41.00
2022-12-09T02:05:39.075Z,42.80
2022-12-09T02:06:39.257Z,44.40
2022-12-09T02:07:39.082Z,46.70
2022-12-09T02:08:39.443Z,46.70
2022-12-09T02:09:39.276Z,41.20
2022-12-09T02:10:39.126Z,46.00
2022-12-09T02:11:39.326Z,44.30
2022-12-09T02:12:39.413Z,41.80
2022-12-09T02:13:39.374Z,42.30
2022-12-09T02:14:39.528Z,44.30
2022-12-09T02:15:39.474Z,52.50
2022-12-09T02:16:39.149Z,46.50
2022-12-09T02:17:39.277Z,43.90
2022-12-09T02:18:39.170Z,43.70
2022-12-09T02:19:39.390Z,43.80
2022-12-09T02:20:39.148Z,49.00
2022-12-09T02:21:39.138Z,52.10
2022-12-09T02:22:39.140Z,51.80
2022-12-09T02:23:39.325Z,56.80
2022-12-09T02:24:39.314Z,50.50
2022-12-09T02:25:39.442Z,44.00
2022-12-09T02:26:39.200Z,42.50
2022-12-09T02:27:39.374Z,45.70
2022-12-09T02:28:39.176Z,48.30
2022-12-09T02:29:39.142Z,52.90
2022-12-09T02:30:39.160Z,54.50
2022-12-09T02:31:39.308Z,57.10
2022-12-09T02:32:39.240Z,58.10
2022-12-09T02:33:39.190Z,59.70
2022-12-09T02:34:39.482Z,54.20
2022-12-09T02:35:39.447Z,54.70
2022-12-09T02:36:39.312Z,51.90
2022-12-09T02:37:39.171Z,48.60
2022-12-09T02:38:39.190Z,45.80
2022-12-09T02:39:39.404Z,46.40
2022-12-09T02:40:39.257Z,39.30
2022-12-09T02:41:39.206Z,43.50
2022-12-09T02:42:39.197Z,49.60
2022-12-09T02:43:41.139Z,50.00
2022-12-09T02:44:40.212Z,50.20
2022-12-09T02:45:39.426Z,47.50
2022-12-09T02:46:39.607Z,48.00
2022-12-09T02:47:39.514Z,47.50
2022-12-09T02:48:39.565Z,46.80
2022-12-09T02:49:39.527Z,51.80
2022-12-09T02:50:39.282Z,43.00
2022-12-09T02:51:39.270Z,47.00
2022-12-09T02:52:39.529Z,45.30
2022-12-09T02:53:39.413Z,40.20
2022-12-09T02:54:39.643Z,43.90
2022-12-09T02:55:39.342Z,45.00
2022-12-09T02:56:39.516Z,44.20
2022-12-09T02:57:39.444Z,45.20
2022-12-09T02:58:39.380Z,45.10
2022-12-09T02:59:39.515Z,46.70
2022-12-09T03:00:39.523Z,46.90
2022-12-09T03:01:39.507Z,41.30
2022-12-09T03:02:39.552Z,38.20
2022-12-09T03:03:39.628Z,37.00
2022-12-09T03:04:39.807Z,39.00
2022-12-09T03:05:39.479Z,36.00
2022-12-09T03:06:39.711Z,36.40
2022-12-09T03:07:39.495Z,38.20
2022-12-09T03:08:39.623Z,38.40
2022-12-09T03:09:39.617Z,36.50
2022-12-09T03:10:39.488Z,38.40
2022-12-09T03:11:39.642Z,35.70
2022-12-09T03:12:39.808Z,35.00
2022-12-09T03:13:39.807Z,34.90
2022-12-09T03:14:39.498Z,35.60
2022-12-09T03:15:39.571Z,39.00
2022-12-09T03:16:39.557Z,33.90
2022-12-09T03:17:39.560Z,32.00
2022-12-09T03:18:39.623Z,31.70
2022-12-09T03:19:39.898Z,30.90
2022-12-09T03:20:39.586Z,32.50
2022-12-09T03:21:39.565Z,31.70
2022-12-09T03:22:39.575Z,29.50
2022-12-09T03:23:39.585Z,29.60
2022-12-09T03:24:39.615Z,32.70
2022-12-09T03:25:39.777Z,29.40
2022-12-09T03:26:39.639Z,29.60
2022-12-09T03:27:39.989Z,31.00
2022-12-09T03:28:39.657Z,30.10
2022-12-09T03:29:39.927Z,29.60
2022-12-09T03:30:39.761Z,28.20
2022-12-09T03:31:39.726Z,28.00
2022-12-09T03:32:39.722Z,29.20
2022-12-09T03:33:39.704Z,30.40
2022-12-09T03:34:39.650Z,27.70
2022-12-09T03:35:39.677Z,28.20
2022-12-09T03:36:39.780Z,29.00
2022-12-09T03:37:39.959Z,27.90
2022-12-09T03:38:39.714Z,31.70
2022-12-09T03:39:40.092Z,30.10
2022-12-09T03:40:39.970Z,25.60
2022-12-09T03:41:39.834Z,29.30
2022-12-09T03:42:39.767Z,29.20
2022-12-09T03:43:39.995Z,28.70
2022-12-09T03:44:39.788Z,30.00
2022-12-09T03:45:40.187Z,28.60
2022-12-09T03:46:40.175Z,30.90
2022-12-09T03:47:40.077Z,32.20
2022-12-09T03:48:40.199Z,32.70
2022-12-09T03:49:39.863Z,31.70
2022-12-09T03:50:40.043Z,37.70
2022-12-09T03:51:39.909Z,36.30
2022-12-09T03:52:40.252Z,36.80
2022-12-09T03:53:40.239Z,32.70
2022-12-09T03:54:39.949Z,30.80
2022-12-09T03:55:40.183Z,32.30
2022-12-09T03:56:39.980Z,32.70
2022-12-09T03:57:39.990Z,32.20
2022-12-09T03:58:40.005Z,29.50
2022-12-09T03:59:40.135Z,30.70
2022-12-09T04:00:40.082Z,33.80
2022-12-09T04:01:40.113Z,32.70
2022-12-09T04:02:40.492Z,28.20
2022-12-09T04:03:40.271Z,30.00
2022-12-09T04:04:40.273Z,32.60
2022-12-09T04:05:40.285Z,30.00
2022-12-09T04:06:40.162Z,32.40
2022-12-09T04:07:40.320Z,31.70
2022-12-09T04:08:40.242Z,29.20
2022-12-09T04:09:40.596Z,30.90
2022-12-09T04:10:40.397Z,32.30
2022-12-09T04:11:40.473Z,29.10
2022-12-09T04:12:40.482Z,30.40
2022-12-09T04:13:40.603Z,31.10
2022-12-09T04:14:40.281Z,28.20
2022-12-09T04:15:40.623Z,33.20
2022-12-09T04:16:40.356Z,32.70
2022-12-09T04:17:40.741Z,28.60
2022-12-09T04:18:40.754Z,30.00
2022-12-09T04:19:40.389Z,30.20
2022-12-09T04:20:40.465Z,33.70
2022-12-09T04:21:40.499Z,33.60
2022-12-09T04:22:40.485Z,28.70
2022-12-09T04:23:43.263Z,33.70
2022-12-09T04:24:40.557Z,31.00
2022-12-09T04:25:40.919Z,30.10
2022-12-09T04:26:40.686Z,32.40
2022-12-09T04:27:40.532Z,30.00
2022-12-09T04:28:40.622Z,30.60
2022-12-09T04:29:40.620Z,28.80
2022-12-09T04:30:40.724Z,30.10
2022-12-09T04:31:40.737Z,29.80
2022-12-09T04:32:41.101Z,29.20
2022-12-09T04:33:41.062Z,29.70
2022-12-09T04:34:40.829Z,30.00
2022-12-09T04:35:40.779Z,28.60
2022-12-09T04:36:40.949Z,31.60
2022-12-09T04:37:40.741Z,32.10
2022-12-09T04:38:40.876Z,30.20
2022-12-09T04:39:41.146Z,27.70
2022-12-09T04:40:40.994Z,31.60
2022-12-09T04:41:40.847Z,33.00
2022-12-09T04:42:41.197Z,31.20
2022-12-09T04:43:41.061Z,32.20
2022-12-09T04:44:41.215Z,28.40
2022-12-09T04:45:41.330Z,31.40
2022-12-09T04:46:41.253Z,29.40
2022-12-09T04:47:41.344Z,30.70
2022-12-09T04:48:41.220Z,30.20
2022-12-09T04:49:41.028Z,30.30
2022-12-09T04:50:41.211Z,34.30
2022-12-09T04:51:41.126Z,28.40
2022-12-09T04:52:41.111Z,32.40
2022-12-09T04:53:41.414Z,37.00
2022-12-09T04:54:41.126Z,31.30
2022-12-09T04:55:41.441Z,32.40
2022-12-09T04:56:41.650Z,31.10
2022-12-09T04:57:41.187Z,32.00
2022-12-09T04:58:41.640Z,35.00
2022-12-09T04:59:41.389Z,31.80
2022-12-09T05:00:41.495Z,32.00
2022-12-09T05:01:41.561Z,29.00
2022-12-09T05:02:41.631Z,30.50
2022-12-09T05:03:41.386Z,30.20
2022-12-09T05:04:41.898Z,28.20
2022-12-09T05:05:41.786Z,32.10
2022-12-09T05:06:41.684Z,29.50
2022-12-09T05:07:41.587Z,28.90
2022-12-09T05:08:41.499Z,28.90
2022-12-09T05:09:41.713Z,30.20
2022-12-09T05:10:41.649Z,32.40
2022-12-09T05:11:41.644Z,34.10
2022-12-09T05:12:41.541Z,28.20
2022-12-09T05:13:41.465Z,33.90
2022-12-09T05:14:41.686Z,32.00
2022-12-09T05:15:41.592Z,32.30
2022-12-09T05:16:41.983Z,31.50
2022-12-09T05:17:41.619Z,34.30
2022-12-09T05:18:41.766Z,30.40
2022-12-09T05:19:41.564Z,32.70
2022-12-09T05:20:41.838Z,32.30
2022-12-09T05:21:41.725Z,32.80
2022-12-09T05:22:41.773Z,32.90
2022-12-09T05:23:41.779Z,34.00
2022-12-09T05:24:41.713Z,34.70
2022-12-09T05:25:41.657Z,34.30
2022-12-09T05:26:41.787Z,32.20
2022-12-09T05:27:41.736Z,32.80
2022-12-09T05:28:41.690Z,33.10
2022-12-09T05:29:41.861Z,33.10
2022-12-09T05:30:41.713Z,37.90
2022-12-09T05:31:41.879Z,36.00
2022-12-09T05:32:42.033Z,37.10
2022-12-09T05:33:42.185Z,36.10
2022-12-09T05:34:41.949Z,33.00
2022-12-09T05:35:50.857Z,33.10
2022-12-09T05:36:42.695Z,36.90
2022-12-09T05:37:41.811Z,38.30
2022-12-09T05:38:41.808Z,37.50
2022-12-09T05:39:41.918Z,31.10
2022-12-09T05:40:42.023Z,31.40
2022-12-09T05:41:41.731Z,33.40
2022-12-09T05:42:42.245Z,33.00
2022-12-09T05:43:41.725Z,34.30
2022-12-09T05:44:41.728Z,34.70
2022-12-09T05:45:42.029Z,33.90
2022-12-09T05:46:41.879Z,36.50
2022-12-09T05:47:41.834Z,41.80
2022-12-09T05:48:41.814Z,40.50
2022-12-09T05:49:41.768Z,39.40
2022-12-09T05:50:41.728Z,44.50
2022-12-09T05:51:42.014Z,44.00
2022-12-09T05:52:42.039Z,43.90
2022-12-09T05:53:41.691Z,38.70
2022-12-09T05:54:41.758Z,40.40
2022-12-09T05:55:42.075Z,40.00
2022-12-09T05:56:46.318Z,40.20
2022-12-09T05:57:42.721Z,42.00
2022-12-09T05:58:41.671Z,37.10
2022-12-09T05:59:42.054Z,37.30
2022-12-09T06:00:41.918Z,39.50
2022-12-09T06:01:42.033Z,36.60
2022-12-09T06:02:41.817Z,40.10
2022-12-09T06:03:41.916Z,40.60
2022-12-09T06:04:42.047Z,34.60
2022-12-09T06:05:42.301Z,39.70
2022-12-09T06:06:41.742Z,41.00
2022-12-09T06:07:41.971Z,47.00
2022-12-09T06:08:41.925Z,40.10
2022-12-09T06:09:41.975Z,40.60
2022-12-09T06:10:41.781Z,39.10
2022-12-09T06:11:41.868Z,34.30
2022-12-09T06:12:41.745Z,37.70
2022-12-09T06:13:41.639Z,36.30
2022-12-09T06:14:41.616Z,37.10
2022-12-09T06:15:41.817Z,39.40
2022-12-09T06:16:41.746Z,36.70
2022-12-09T06:17:41.864Z,34.90
2022-12-09T06:18:41.837Z,36.80
2022-12-09T06:19:41.694Z,34.60
2022-12-09T06:20:41.740Z,33.70
2022-12-09T06:21:41.694Z,32.80
2022-12-09T06:22:41.878Z,29.30
2022-12-09T06:23:41.643Z,31.60
2022-12-09T06:24:41.644Z,31.40
2022-12-09T06:25:41.694Z,35.70
2022-12-09T06:26:41.792Z,31.30
2022-12-09T06:27:41.742Z,33.60
2022-12-09T06:28:41.713Z,30.50
2022-12-09T06:29:41.860Z,32.60
2022-12-09T06:30:41.526Z,32.50
2022-12-09T06:31:41.553Z,37.30
2022-12-09T06:32:41.652Z,35.80
2022-12-09T06:33:54.123Z,35.30
2022-12-09T06:34:43.025Z,35.40
2022-12-09T06:35:41.729Z,36.30
2022-12-09T06:36:41.665Z,33.20
2022-12-09T06:37:41.650Z,35.70
2022-12-09T06:38:41.955Z,38.00
2022-12-09T06:39:41.851Z,33.70
2022-12-09T06:40:41.489Z,39.60
2022-12-09T06:41:41.570Z,44.50
2022-12-09T06:42:41.864Z,40.90
2022-12-09T06:43:41.904Z,39.00
2022-12-09T06:44:41.568Z,43.80
2022-12-09T06:45:41.755Z,40.50
2022-12-09T06:46:41.525Z,41.60
2022-12-09T06:47:41.549Z,39.80
2022-12-09T06:48:41.900Z,40.10
2022-12-09T06:49:41.998Z,45.10
2022-12-09T06:50:41.603Z,41.10
2022-12-09T06:51:41.634Z,42.30
2022-12-09T06:52:41.510Z,36.90
2022-12-09T06:53:41.584Z,40.00
2022-12-09T06:54:41.467Z,39.20
2022-12-09T06:55:41.602Z,40.20
2022-12-09T06:56:41.584Z,37.60
2022-12-09T06:57:41.421Z,34.50
2022-12-09T06:58:41.499Z,33.70
2022-12-09T06:59:41.589Z,35.70
2022-12-09T07:00:41.561Z,40.10
2022-12-09T07:01:41.869Z,38.00
2022-12-09T07:02:41.873Z,38.90
2022-12-09T07:03:41.828Z,38.20
2022-12-09T07:04:41.558Z,34.00
2022-12-09T07:05:41.869Z,36.80
2022-12-09T07:06:41.726Z,37.20
2022-12-09T07:07:41.574Z,37.50
2022-12-09T07:08:41.761Z,35.90
2022-12-09T07:09:41.425Z,36.90
2022-12-09T07:10:41.549Z,38.70
2022-12-09T07:11:41.591Z,38.50
2022-12-09T07:12:41.315Z,35.30
2022-12-09T07:13:41.281Z,36.20
2022-12-09T07:14:41.317Z,37.90
2022-12-09T07:15:41.662Z,38.10
2022-12-09T07:16:41.468Z,41.50
2022-12-09T07:17:41.488Z,41.30
2022-12-09T07:18:41.404Z,42.00
2022-12-09T07:19:41.645Z,41.40
2022-12-09T07:20:41.680Z,42.10
2022-12-09T07:21:41.261Z,35.70
2022-12-09T07:22:41.420Z,39.40
2022-12-09T07:23:41.520Z,40.10
2022-12-09T07:24:41.303Z,37.60
2022-12-09T07:25:41.351Z,38.90
2022-12-09T07:26:41.347Z,38.50
2022-12-09T07:27:41.647Z,36.00
2022-12-09T07:28:41.272Z,35.00
2022-12-09T07:29:41.385Z,37.30
2022-12-09T07:30:41.478Z,37.10
2022-12-09T07:31:41.418Z,38.50
2022-12-09T07:32:41.408Z,35.30
2022-12-09T07:33:41.464Z,33.60
2022-12-09T07:34:41.393Z,34.20
2022-12-09T07:35:41.554Z,33.70
2022-12-09T07:36:41.397Z,38.10
2022-12-09T07:37:41.292Z,36.10
2022-12-09T07:38:41.088Z,33.00
2022-12-09T07:39:41.295Z,35.40
2022-12-09T07:40:41.176Z,35.70
2022-12-09T07:41:41.375Z,32.20
2022-12-09T07:42:41.153Z,30.90
2022-12-09T07:43:41.010Z,30.20
2022-12-09T07:44:41.270Z,31.60
2022-12-09T07:45:41.081Z,33.60
2022-12-09T07:46:41.148Z,35.60
2022-12-09T07:47:41.026Z,34.90
2022-12-09T07:48:41.014Z,34.70
2022-12-09T07:49:41.410Z,35.40
2022-12-09T07:50:40.871Z,33.50
2022-12-09T07:51:40.920Z,38.50
2022-12-09T07:52:40.978Z,38.20
2022-12-09T07:53:41.296Z,40.90
2022-12-09T07:54:40.769Z,35.80
2022-12-09T07:55:40.767Z,39.00
2022-12-09T07:56:40.822Z,39.80
2022-12-09T07:57:40.832Z,38.20
2022-12-09T07:58:41.062Z,40.40
2022-12-09T07:59:40.859Z,38.80
2022-12-09T08:00:40.899Z,40.20
2022-12-09T08:01:40.834Z,39.90
2022-12-09T08:02:40.900Z,45.20
2022-12-09T08:03:41.000Z,46.40
2022-12-09T08:04:40.895Z,55.10
2022-12-09T08:05:40.747Z,55.00
2022-12-09T08:06:41.267Z,50.50
2022-12-09T08:07:44.246Z,49.70
2022-12-09T08:08:41.020Z,57.10
2022-12-09T08:09:40.714Z,52.90
2022-12-09T08:10:40.849Z,50.30
2022-12-09T08:11:40.935Z,47.70
2022-12-09T08:12:40.732Z,45.30
2022-12-09T08:13:40.458Z,46.50
2022-12-09T08:14:40.462Z,46.20
2022-12-09T08:15:40.699Z,43.40
2022-12-09T08:16:40.659Z,45.20
2022-12-09T08:17:40.560Z,41.20
2022-12-09T08:18:40.466Z,45.80
2022-12-09T08:19:40.580Z,42.80
2022-12-09T08:20:40.314Z,46.10
2022-12-09T08:21:40.766Z,46.00
2022-12-09T08:22:40.564Z,43.10
2022-12-09T08:23:40.407Z,45.00
2022-12-09T08:24:40.817Z,43.80
2022-12-09T08:25:40.298Z,40.20
2022-12-09T08:26:40.350Z,40.30
2022-12-09T08:27:40.284Z,36.20
2022-12-09T08:28:40.330Z,36.20
2022-12-09T08:29:40.181Z,36.40
2022-12-09T08:30:40.478Z,37.90
2022-12-09T08:31:41.836Z,34.40
2022-12-09T08:32:40.088Z,32.10
2022-12-09T08:33:40.008Z,36.40
2022-12-09T08:34:40.360Z,39.60
2022-12-09T08:35:39.924Z,37.10
2022-12-09T08:36:39.953Z,38.80
2022-12-09T08:37:40.072Z,33.90
2022-12-09T08:38:40.097Z,33.00
2022-12-09T08:39:39.887Z,36.20
2022-12-09T08:40:40.164Z,35.10
2022-12-09T08:41:40.208Z,36.60
2022-12-09T08:42:39.924Z,32.70
2022-12-09T08:43:40.074Z,34.70
2022-12-09T08:44:40.086Z,35.00
2022-12-09T08:45:39.949Z,36.40
2022-12-09T08:46:39.927Z,35.00
2022-12-09T08:47:39.730Z,35.60
2022-12-09T08:48:39.802Z,38.70
2022-12-09T08:49:40.161Z,36.40
2022-12-09T08:50:40.085Z,34.60
2022-12-09T08:51:39.700Z,36.30
2022-12-09T08:52:40.845Z,33.90
2022-12-09T08:53:39.929Z,34.40
2022-12-09T08:54:39.507Z,38.80
2022-12-09T08:55:39.578Z,34.80
2022-12-09T08:56:39.513Z,35.80
2022-12-09T08:57:39.749Z,32.50
2022-12-09T08:58:39.576Z,34.50
2022-12-09T08:59:45.002Z,33.70
2022-12-09T09:00:40.527Z,34.50
2022-12-09T09:01:39.303Z,38.80
2022-12-09T09:02:39.407Z,37.00
2022-12-09T09:03:39.346Z,37.40
2022-12-09T09:04:39.866Z,40.40
2022-12-09T09:05:39.395Z,37.20
2022-12-09T09:06:39.529Z,38.60
2022-12-09T09:07:39.127Z,41.00
2022-12-09T09:08:39.283Z,44.90
2022-12-09T09:09:39.526Z,40.00
2022-12-09T09:10:39.110Z,36.80
2022-12-09T09:11:39.491Z,40.00
2022-12-09T09:12:43.191Z,36.60
2022-12-09T09:13:40.025Z,43.00
2022-12-09T09:14:38.995Z,40.30
2022-12-09T09:15:39.017Z,38.70
2022-12-09T09:16:38.883Z,38.40
2022-12-09T09:17:39.354Z,37.40
2022-12-09T09:18:39.261Z,39.60
2022-12-09T09:19:39.112Z,36.90
2022-12-09T09:20:38.978Z,36.70
2022-12-09T09:21:38.716Z,38.30
2022-12-09T09:22:39.005Z,40.20
2022-12-09T09:23:38.778Z,39.80
2022-12-09T09:24:39.024Z,40.80
2022-12-09T09:25:38.864Z,38.00
2022-12-09T09:26:38.726Z,44.90
2022-12-09T09:27:38.550Z,42.90
2022-12-09T09:28:38.592Z,38.90
2022-12-09T09:29:38.397Z,38.40
2022-12-09T09:30:38.519Z,38.50
2022-12-09T09:31:38.428Z,38.00
2022-12-09T09:32:38.737Z,38.70
2022-12-09T09:33:38.285Z,40.90
2022-12-09T09:34:38.533Z,37.90
2022-12-09T09:35:38.496Z,37.90
2022-12-09T09:36:38.434Z,37.30
2022-12-09T09:37:38.272Z,34.90
2022-12-09T09:38:38.489Z,37.60
2022-12-09T09:39:38.118Z,41.00
2022-12-09T09:40:38.095Z,34.40
2022-12-09T09:41:38.009Z,36.80
2022-12-09T09:42:37.987Z,38.70
2022-12-09T09:43:38.318Z,39.30
2022-12-09T09:44:38.065Z,39.70
2022-12-09T09:45:37.962Z,38.00
2022-12-09T09:46:38.095Z,36.70
2022-12-09T09:47:38.786Z,36.70
2022-12-09T09:48:38.319Z,38.10
2022-12-09T09:49:37.765Z,41.70
2022-12-09T09:50:37.870Z,37.60
2022-12-09T09:51:37.889Z,33.10
2022-12-09T09:52:37.652Z,34.20
2022-12-09T09:53:37.808Z,33.00
2022-12-09T09:54:37.925Z,30.30
2022-12-09T09:55:37.535Z,34.50
2022-12-09T09:56:37.585Z,31.70
2022-12-09T09:57:37.859Z,30.80
2022-12-09T09:58:37.571Z,32.40
2022-12-09T09:59:37.580Z,34.20
2022-12-09T10:00:37.969Z,31.90
2022-12-09T10:01:37.761Z,31.70
2022-12-09T10:02:37.647Z,30.90
2022-12-09T10:03:37.486Z,31.20
2022-12-09T10:04:37.543Z,32.70
2022-12-09T10:05:37.462Z,33.00
2022-12-09T10:06:37.520Z,34.70
2022-12-09T10:07:37.540Z,29.50
2022-12-09T10:08:37.610Z,33.10
2022-12-09T10:09:37.267Z,33.80
2022-12-09T10:10:37.519Z,29.70
2022-12-09T10:11:37.509Z,28.30
2022-12-09T10:12:37.119Z,29.00
2022-12-09T10:13:37.628Z,31.40
2022-12-09T10:14:37.357Z,31.70
2022-12-09T10:15:39.971Z,30.00
2022-12-09T10:16:36.998Z,30.80
2022-12-09T10:17:37.456Z,28.30
2022-12-09T10:18:36.981Z,27.80
2022-12-09T10:19:36.997Z,24.90
2022-12-09T10:20:36.848Z,23.70
2022-12-09T10:21:36.811Z,27.30
2022-12-09T10:22:36.838Z,24.50
2022-12-09T10:23:37.060Z,25.20
2022-12-09T10:24:40.547Z,22.40
2022-12-09T10:25:36.647Z,24.30
2022-12-09T10:26:36.830Z,24.80
2022-12-09T10:27:36.628Z,26.60
2022-12-09T10:28:36.506Z,24.80
2022-12-09T10:29:36.362Z,25.60
2022-12-09T10:30:41.774Z,24.70
2022-12-09T10:31:37.511Z,22.20
2022-12-09T10:32:36.641Z,25.90
2022-12-09T10:33:36.411Z,28.10
2022-12-09T10:34:36.534Z,23.70
2022-12-09T10:35:36.541Z,21.40
2022-12-09T10:36:36.788Z,25.10
2022-12-09T10:37:36.169Z,24.10
2022-12-09T10:38:36.406Z,22.50
2022-12-09T10:39:36.292Z,23.30
2022-12-09T10:40:36.274Z,23.70
2022-12-09T10:41:36.233Z,24.20
2022-12-09T10:42:36.115Z,24.70
2022-12-09T10:43:36.353Z,26.20
2022-12-09T10:44:36.160Z,20.20
2022-12-09T10:46:08.461Z,23.20
2022-12-09T10:46:37.183Z,22.10
2022-12-09T10:47:35.807Z,24.60
2022-12-09T10:48:36.516Z,22.30
2022-12-09T10:49:35.873Z,21.70
2022-12-09T10:50:35.734Z,22.50
2022-12-09T10:51:35.633Z,22.00
2022-12-09T10:52:35.642Z,20.70
2022-12-09T10:53:35.393Z,21.10
2022-12-09T10:54:35.798Z,21.70
2022-12-09T10:55:35.706Z,22.40
2022-12-09T10:56:35.715Z,21.20
2022-12-09T10:57:35.442Z,24.20
2022-12-09T10:58:35.306Z,25.10
2022-12-09T10:59:35.363Z,24.20
2022-12-09T11:00:35.429Z,23.50
2022-12-09T11:01:35.461Z,23.30
2022-12-09T11:02:35.252Z,21.10
2022-12-09T11:03:35.361Z,22.80
2022-12-09T11:04:35.264Z,21.60
2022-12-09T11:05:35.053Z,23.70
2022-12-09T11:06:35.239Z,25.80
2022-12-09T11:07:34.873Z,20.90
2022-12-09T11:08:35.329Z,23.30
2022-12-09T11:09:34.914Z,20.10
2022-12-09T11:10:35.293Z,21.90
2022-12-09T11:11:34.758Z,22.40
2022-12-09T11:12:40.578Z,23.10
2022-12-09T11:13:35.788Z,21.70
2022-12-09T11:14:34.905Z,20.90
2022-12-09T11:15:34.666Z,23.20
2022-12-09T11:16:35.106Z,20.90
2022-12-09T11:17:35.911Z,20.60
2022-12-09T11:18:34.826Z,22.20
2022-12-09T11:19:34.385Z,21.10
2022-12-09T11:20:34.681Z,21.40
2022-12-09T11:21:34.377Z,23.30
2022-12-09T11:22:34.531Z,24.20
2022-12-09T11:23:34.597Z,20.10
2022-12-09T11:24:34.642Z,23.60
2022-12-09T11:25:34.532Z,21.40
2022-12-09T11:26:34.442Z,23.00
2022-12-09T11:27:34.074Z,26.50
2022-12-09T11:28:34.423Z,27.00
2022-12-09T11:29:34.396Z,26.60
2022-12-09T11:30:34.148Z,24.20
2022-12-09T11:31:34.245Z,25.50
2022-12-09T11:32:33.967Z,23.40
2022-12-09T11:33:34.162Z,22.70
2022-12-09T11:34:34.332Z,22.80
2022-12-09T11:35:34.084Z,23.10
2022-12-09T11:36:35.404Z,23.30
2022-12-09T11:37:33.583Z,22.40
2022-12-09T11:38:33.573Z,23.70
2022-12-09T11:39:33.529Z,24.50
2022-12-09T11:40:33.494Z,20.80
2022-12-09T11:41:33.465Z,23.00
2022-12-09T11:42:33.442Z,22.20
2022-12-09T11:43:33.383Z,22.30
2022-12-09T11:44:33.364Z,26.20
2022-12-09T11:45:33.313Z,23.70
2022-12-09T11:46:33.309Z,25.70
2022-12-09T11:47:50.472Z,29.50
2022-12-09T11:48:38.641Z,25.90
2022-12-09T11:49:34.164Z,30.60
2022-12-09T11:50:33.511Z,27.40
2022-12-09T11:51:33.094Z,27.00
2022-12-09T11:52:33.063Z,23.00
2022-12-09T11:53:33.049Z,25.10
2022-12-09T11:54:32.982Z,26.40
2022-12-09T11:55:32.944Z,27.90
2022-12-09T11:56:32.939Z,25.50
2022-12-09T11:57:32.884Z,24.60
2022-12-09T11:58:32.826Z,28.20
2022-12-09T11:59:37.840Z,27.60
2022-12-09T12:00:33.767Z,27.40
2022-12-09T12:01:32.739Z,25.40
2022-12-09T12:02:32.701Z,24.10
2022-12-09T12:03:32.658Z,27.90
2022-12-09T12:04:32.586Z,29.00
2022-12-09T12:05:32.544Z,23.60
2022-12-09T12:06:32.505Z,25.80
2022-12-09T12:07:32.464Z,26.90
2022-12-09T12:08:32.563Z,27.50
2022-12-09T12:09:32.385Z,27.90
2022-12-09T12:10:32.348Z,26.10
2022-12-09T12:11:32.293Z,26.60
2022-12-09T12:12:32.266Z,24.40
2022-12-09T12:13:32.237Z,25.80
2022-12-09T12:14:32.186Z,28.40
2022-12-09T12:15:32.137Z,25.00
2022-12-09T12:16:37.670Z,28.00
2022-12-09T12:17:33.088Z,26.50
2022-12-09T12:18:32.039Z,26.00
2022-12-09T12:19:31.997Z,26.70
2022-12-09T12:20:31.957Z,28.10
2022-12-09T12:21:31.915Z,28.70
2022-12-09T12:22:31.883Z,31.90
2022-12-09T12:23:31.827Z,27.00
2022-12-09T12:24:31.798Z,26.40
2022-12-09T12:25:31.747Z,30.50
2022-12-09T12:26:31.718Z,28.30
2022-12-09T12:27:31.671Z,25.10
2022-12-09T12:28:31.628Z,29.00
2022-12-09T12:29:31.622Z,27.20
2022-12-09T12:30:31.551Z,25.40
2022-12-09T12:31:31.583Z,26.90
2022-12-09T12:32:31.468Z,25.20
2022-12-09T12:34:23.065Z,28.10
2022-12-09T12:34:38.951Z,26.40
2022-12-09T12:35:32.333Z,27.80
2022-12-09T12:36:31.359Z,27.10
2022-12-09T12:37:31.249Z,25.60
2022-12-09T12:38:31.200Z,25.90
2022-12-09T12:39:31.210Z,24.70
2022-12-09T12:40:31.132Z,28.10
2022-12-09T12:41:31.090Z,24.60
2022-12-09T12:42:31.071Z,26.20
2022-12-09T12:43:31.028Z,24.40
2022-12-09T12:44:30.980Z,27.30
2022-12-09T12:45:30.999Z,25.90
2022-12-09T12:46:30.969Z,26.10
2022-12-09T12:47:30.853Z,27.90
2022-12-09T12:48:30.844Z,27.40
2022-12-09T12:49:30.761Z,27.30
2022-12-09T12:50:30.730Z,25.40
2022-12-09T12:51:30.689Z,22.40
2022-12-09T12:52:55.671Z,29.00